sensor_id;sensor_type;location;lat;lon;timestamp;P1;durP1;ratioP1;P2;durP2;ratioP2
1380;SDS011;684;48.342;10.096;2022-07-10T00:00:36;24.47;;;5.10;;
1380;SDS011;684;48.342;10.096;2022-07-10T00:03:05;23.97;;;4.87;;
1380;SDS011;684;48.342;10.096;2022-07-10T00:05:32;25.87;;;5.67;;
1380;SDS011;684;48.342;10.096;2022-07-10T00:08:00;25.70;;;5.43;;
1380;SDS011;684;48.342;10.096;2022-07-10T00:10:27;24.90;;;5.30;;
1380;SDS011;684;48.342;10.096;2022-07-10T00:12:55;26.10;;;6.13;;
1380;SDS011;684;48.342;10.096;2022-07-10T00:15:22;26.23;;;4.93;;
1380;SDS011;684;48.342;10.096;2022-07-10T00:17:49;25.70;;;5.60;;
1380;SDS011;684;48.342;10.096;2022-07-10T00:20:17;23.47;;;4.93;;
1380;SDS011;684;48.342;10.096;2022-07-10T00:22:44;24.03;;;5.23;;
1380;SDS011;684;48.342;10.096;2022-07-10T00:25:11;25.10;;;5.70;;
1380;SDS011;684;48.342;10.096;2022-07-10T00:27:39;25.93;;;5.50;;
1380;SDS011;684;48.342;10.096;2022-07-10T00:30:07;24.60;;;5.27;;
1380;SDS011;684;48.342;10.096;2022-07-10T00:32:35;24.30;;;5.60;;
1380;SDS011;684;48.342;10.096;2022-07-10T00:35:02;23.53;;;5.60;;
1380;SDS011;684;48.342;10.096;2022-07-10T00:37:31;27.00;;;5.80;;
1380;SDS011;684;48.342;10.096;2022-07-10T00:39:58;24.50;;;5.80;;
1380;SDS011;684;48.342;10.096;2022-07-10T00:42:25;24.93;;;6.07;;
1380;SDS011;684;48.342;10.096;2022-07-10T00:44:52;24.87;;;5.83;;
1380;SDS011;684;48.342;10.096;2022-07-10T00:47:19;26.70;;;5.87;;
1380;SDS011;684;48.342;10.096;2022-07-10T00:49:46;25.53;;;5.17;;
1380;SDS011;684;48.342;10.096;2022-07-10T00:52:13;24.73;;;5.20;;
1380;SDS011;684;48.342;10.096;2022-07-10T00:54:44;24.90;;;5.53;;
1380;SDS011;684;48.342;10.096;2022-07-10T00:57:12;24.67;;;5.70;;
1380;SDS011;684;48.342;10.096;2022-07-10T00:59:40;24.97;;;5.63;;
1380;SDS011;684;48.342;10.096;2022-07-10T01:02:07;26.03;;;5.77;;
1380;SDS011;684;48.342;10.096;2022-07-10T01:04:37;23.60;;;4.83;;
1380;SDS011;684;48.342;10.096;2022-07-10T01:07:04;25.23;;;5.40;;
1380;SDS011;684;48.342;10.096;2022-07-10T01:09:31;24.20;;;5.83;;
1380;SDS011;684;48.342;10.096;2022-07-10T01:12:00;25.93;;;5.70;;
1380;SDS011;684;48.342;10.096;2022-07-10T01:14:28;23.90;;;4.90;;
1380;SDS011;684;48.342;10.096;2022-07-10T01:16:55;24.70;;;5.60;;
1380;SDS011;684;48.342;10.096;2022-07-10T01:19:22;28.43;;;5.73;;
1380;SDS011;684;48.342;10.096;2022-07-10T01:21:50;27.50;;;5.47;;
1380;SDS011;684;48.342;10.096;2022-07-10T01:24:17;27.80;;;5.40;;
1380;SDS011;684;48.342;10.096;2022-07-10T01:26:44;28.10;;;5.00;;
1380;SDS011;684;48.342;10.096;2022-07-10T01:29:11;28.83;;;6.20;;
1380;SDS011;684;48.342;10.096;2022-07-10T01:31:38;25.53;;;5.50;;
1380;SDS011;684;48.342;10.096;2022-07-10T01:34:06;25.40;;;5.47;;
1380;SDS011;684;48.342;10.096;2022-07-10T01:36:34;26.70;;;5.73;;
1380;SDS011;684;48.342;10.096;2022-07-10T01:39:04;24.50;;;5.80;;
1380;SDS011;684;48.342;10.096;2022-07-10T01:41:32;26.90;;;5.93;;
1380;SDS011;684;48.342;10.096;2022-07-10T01:43:59;25.30;;;5.23;;
1380;SDS011;684;48.342;10.096;2022-07-10T01:46:26;25.10;;;5.90;;
1380;SDS011;684;48.342;10.096;2022-07-10T01:48:52;25.27;;;5.70;;
1380;SDS011;684;48.342;10.096;2022-07-10T01:51:19;27.03;;;5.53;;
1380;SDS011;684;48.342;10.096;2022-07-10T01:53:47;24.83;;;5.67;;
1380;SDS011;684;48.342;10.096;2022-07-10T01:56:15;26.53;;;6.00;;
1380;SDS011;684;48.342;10.096;2022-07-10T01:58:42;27.80;;;6.20;;
1380;SDS011;684;48.342;10.096;2022-07-10T02:01:09;26.50;;;6.40;;
1380;SDS011;684;48.342;10.096;2022-07-10T02:03:36;26.57;;;6.30;;
1380;SDS011;684;48.342;10.096;2022-07-10T02:06:21;27.13;;;6.47;;
1380;SDS011;684;48.342;10.096;2022-07-10T02:08:48;26.27;;;5.83;;
1380;SDS011;684;48.342;10.096;2022-07-10T02:11:16;30.03;;;6.53;;
1380;SDS011;684;48.342;10.096;2022-07-10T02:13:43;25.30;;;5.50;;
1380;SDS011;684;48.342;10.096;2022-07-10T02:16:10;27.27;;;6.00;;
1380;SDS011;684;48.342;10.096;2022-07-10T02:18:36;26.10;;;6.47;;
1380;SDS011;684;48.342;10.096;2022-07-10T02:21:04;27.13;;;6.67;;
1380;SDS011;684;48.342;10.096;2022-07-10T02:23:31;27.43;;;6.80;;
1380;SDS011;684;48.342;10.096;2022-07-10T02:25:57;27.37;;;6.17;;
1380;SDS011;684;48.342;10.096;2022-07-10T02:28:25;25.63;;;5.50;;
1380;SDS011;684;48.342;10.096;2022-07-10T02:30:52;26.23;;;6.50;;
1380;SDS011;684;48.342;10.096;2022-07-10T02:33:19;26.63;;;6.57;;
1380;SDS011;684;48.342;10.096;2022-07-10T02:35:46;26.73;;;6.43;;
1380;SDS011;684;48.342;10.096;2022-07-10T02:38:13;27.33;;;6.70;;
1380;SDS011;684;48.342;10.096;2022-07-10T02:40:40;28.17;;;6.47;;
1380;SDS011;684;48.342;10.096;2022-07-10T02:43:06;27.03;;;6.87;;
1380;SDS011;684;48.342;10.096;2022-07-10T02:45:35;27.57;;;6.57;;
1380;SDS011;684;48.342;10.096;2022-07-10T02:48:02;29.33;;;6.60;;
1380;SDS011;684;48.342;10.096;2022-07-10T02:50:29;26.73;;;6.67;;
1380;SDS011;684;48.342;10.096;2022-07-10T02:52:56;26.00;;;6.47;;
1380;SDS011;684;48.342;10.096;2022-07-10T02:55:23;28.00;;;6.90;;
1380;SDS011;684;48.342;10.096;2022-07-10T02:57:49;29.03;;;6.73;;
1380;SDS011;684;48.342;10.096;2022-07-10T03:00:16;27.00;;;6.70;;
1380;SDS011;684;48.342;10.096;2022-07-10T03:02:44;26.50;;;6.27;;
1380;SDS011;684;48.342;10.096;2022-07-10T03:05:11;26.60;;;6.90;;
1380;SDS011;684;48.342;10.096;2022-07-10T03:07:38;27.43;;;7.00;;
1380;SDS011;684;48.342;10.096;2022-07-10T03:10:05;26.53;;;6.43;;
1380;SDS011;684;48.342;10.096;2022-07-10T03:12:33;26.80;;;6.53;;
1380;SDS011;684;48.342;10.096;2022-07-10T03:14:59;26.87;;;6.20;;
1380;SDS011;684;48.342;10.096;2022-07-10T03:17:26;28.23;;;6.60;;
1380;SDS011;684;48.342;10.096;2022-07-10T03:19:54;27.10;;;6.80;;
1380;SDS011;684;48.342;10.096;2022-07-10T03:22:21;27.40;;;7.40;;
1380;SDS011;684;48.342;10.096;2022-07-10T03:24:48;28.40;;;7.57;;
1380;SDS011;684;48.342;10.096;2022-07-10T03:27:15;27.20;;;6.93;;
1380;SDS011;684;48.342;10.096;2022-07-10T03:29:41;27.97;;;6.93;;
1380;SDS011;684;48.342;10.096;2022-07-10T03:32:08;28.73;;;7.03;;
1380;SDS011;684;48.342;10.096;2022-07-10T03:34:35;28.00;;;6.80;;
1380;SDS011;684;48.342;10.096;2022-07-10T03:37:03;28.17;;;7.30;;
1380;SDS011;684;48.342;10.096;2022-07-10T03:39:30;27.83;;;7.03;;
1380;SDS011;684;48.342;10.096;2022-07-10T03:41:57;28.40;;;6.87;;
1380;SDS011;684;48.342;10.096;2022-07-10T03:44:24;28.90;;;7.53;;
1380;SDS011;684;48.342;10.096;2022-07-10T03:46:51;28.00;;;7.53;;
1380;SDS011;684;48.342;10.096;2022-07-10T03:49:17;28.70;;;8.30;;
1380;SDS011;684;48.342;10.096;2022-07-10T03:51:44;29.40;;;7.33;;
1380;SDS011;684;48.342;10.096;2022-07-10T03:54:12;28.80;;;8.37;;
1380;SDS011;684;48.342;10.096;2022-07-10T03:56:39;29.87;;;8.13;;
1380;SDS011;684;48.342;10.096;2022-07-10T03:59:23;29.17;;;7.63;;
1380;SDS011;684;48.342;10.096;2022-07-10T04:01:50;28.70;;;8.17;;
1380;SDS011;684;48.342;10.096;2022-07-10T04:04:17;28.50;;;7.17;;
1380;SDS011;684;48.342;10.096;2022-07-10T04:06:44;29.27;;;8.87;;
1380;SDS011;684;48.342;10.096;2022-07-10T04:09:10;29.00;;;8.67;;
1380;SDS011;684;48.342;10.096;2022-07-10T04:11:39;31.50;;;8.73;;
1380;SDS011;684;48.342;10.096;2022-07-10T04:14:05;29.47;;;9.77;;
1380;SDS011;684;48.342;10.096;2022-07-10T04:16:32;29.10;;;9.53;;
1380;SDS011;684;48.342;10.096;2022-07-10T04:18:59;28.23;;;9.40;;
1380;SDS011;684;48.342;10.096;2022-07-10T04:21:26;32.10;;;9.50;;
1380;SDS011;684;48.342;10.096;2022-07-10T04:23:52;29.83;;;9.63;;
1380;SDS011;684;48.342;10.096;2022-07-10T04:26:21;31.50;;;9.27;;
1380;SDS011;684;48.342;10.096;2022-07-10T04:28:48;30.00;;;9.50;;
1380;SDS011;684;48.342;10.096;2022-07-10T04:31:14;31.23;;;9.50;;
1380;SDS011;684;48.342;10.096;2022-07-10T04:33:41;29.00;;;9.00;;
1380;SDS011;684;48.342;10.096;2022-07-10T04:36:08;31.10;;;8.60;;
1380;SDS011;684;48.342;10.096;2022-07-10T04:38:35;30.10;;;9.10;;
1380;SDS011;684;48.342;10.096;2022-07-10T04:41:01;30.17;;;9.67;;
1380;SDS011;684;48.342;10.096;2022-07-10T04:43:30;30.93;;;9.87;;
1380;SDS011;684;48.342;10.096;2022-07-10T04:45:57;29.70;;;8.17;;
1380;SDS011;684;48.342;10.096;2022-07-10T04:48:24;29.37;;;7.90;;
1380;SDS011;684;48.342;10.096;2022-07-10T04:50:51;31.40;;;7.83;;
1380;SDS011;684;48.342;10.096;2022-07-10T04:53:18;32.17;;;8.67;;
1380;SDS011;684;48.342;10.096;2022-07-10T04:55:45;30.27;;;8.50;;
1380;SDS011;684;48.342;10.096;2022-07-10T04:58:12;30.00;;;8.40;;
1380;SDS011;684;48.342;10.096;2022-07-10T05:00:40;33.53;;;8.37;;
1380;SDS011;684;48.342;10.096;2022-07-10T05:03:07;31.00;;;8.40;;
1380;SDS011;684;48.342;10.096;2022-07-10T05:05:33;33.20;;;7.80;;
1380;SDS011;684;48.342;10.096;2022-07-10T05:08:01;31.30;;;6.90;;
1380;SDS011;684;48.342;10.096;2022-07-10T05:10:27;32.00;;;6.90;;
1380;SDS011;684;48.342;10.096;2022-07-10T05:12:54;31.10;;;6.83;;
1380;SDS011;684;48.342;10.096;2022-07-10T05:15:22;30.03;;;6.60;;
1380;SDS011;684;48.342;10.096;2022-07-10T05:17:50;30.07;;;5.80;;
1380;SDS011;684;48.342;10.096;2022-07-10T05:20:17;29.60;;;6.50;;
1380;SDS011;684;48.342;10.096;2022-07-10T05:22:43;30.30;;;6.10;;
1380;SDS011;684;48.342;10.096;2022-07-10T05:25:10;29.40;;;5.30;;
1380;SDS011;684;48.342;10.096;2022-07-10T05:27:37;32.30;;;6.03;;
1380;SDS011;684;48.342;10.096;2022-07-10T05:30:04;29.20;;;5.80;;
1380;SDS011;684;48.342;10.096;2022-07-10T05:32:31;28.70;;;5.80;;
1380;SDS011;684;48.342;10.096;2022-07-10T05:35:00;29.60;;;6.40;;
1380;SDS011;684;48.342;10.096;2022-07-10T05:37:26;28.07;;;5.33;;
1380;SDS011;684;48.342;10.096;2022-07-10T05:39:53;30.10;;;6.33;;
1380;SDS011;684;48.342;10.096;2022-07-10T05:42:20;30.37;;;5.20;;
1380;SDS011;684;48.342;10.096;2022-07-10T05:44:47;28.37;;;4.70;;
1380;SDS011;684;48.342;10.096;2022-07-10T05:47:13;29.00;;;5.67;;
1380;SDS011;684;48.342;10.096;2022-07-10T05:49:40;30.67;;;5.07;;
1380;SDS011;684;48.342;10.096;2022-07-10T05:52:08;27.63;;;4.97;;
1380;SDS011;684;48.342;10.096;2022-07-10T05:54:35;29.93;;;5.00;;
1380;SDS011;684;48.342;10.096;2022-07-10T05:57:02;27.67;;;5.03;;
1380;SDS011;684;48.342;10.096;2022-07-10T05:59:30;36.93;;;6.07;;
1380;SDS011;684;48.342;10.096;2022-07-10T06:01:59;26.07;;;4.50;;
1380;SDS011;684;48.342;10.096;2022-07-10T06:04:26;26.20;;;4.73;;
1380;SDS011;684;48.342;10.096;2022-07-10T06:06:53;27.23;;;4.43;;
1380;SDS011;684;48.342;10.096;2022-07-10T06:09:21;28.50;;;4.03;;
1380;SDS011;684;48.342;10.096;2022-07-10T06:11:48;31.00;;;5.33;;
1380;SDS011;684;48.342;10.096;2022-07-10T06:14:14;29.43;;;4.30;;
1380;SDS011;684;48.342;10.096;2022-07-10T06:16:41;28.57;;;4.40;;
1380;SDS011;684;48.342;10.096;2022-07-10T06:19:08;29.70;;;5.07;;
1380;SDS011;684;48.342;10.096;2022-07-10T06:21:35;27.10;;;4.43;;
1380;SDS011;684;48.342;10.096;2022-07-10T06:24:01;28.57;;;4.70;;
1380;SDS011;684;48.342;10.096;2022-07-10T06:26:30;28.10;;;4.67;;
1380;SDS011;684;48.342;10.096;2022-07-10T06:28:56;28.43;;;5.90;;
1380;SDS011;684;48.342;10.096;2022-07-10T06:31:23;30.17;;;6.80;;
1380;SDS011;684;48.342;10.096;2022-07-10T06:33:50;28.97;;;4.70;;
1380;SDS011;684;48.342;10.096;2022-07-10T06:36:17;27.53;;;3.90;;
1380;SDS011;684;48.342;10.096;2022-07-10T06:38:44;29.43;;;4.80;;
1380;SDS011;684;48.342;10.096;2022-07-10T06:41:10;27.23;;;4.23;;
1380;SDS011;684;48.342;10.096;2022-07-10T06:43:38;27.63;;;4.40;;
1380;SDS011;684;48.342;10.096;2022-07-10T06:46:05;28.83;;;4.53;;
1380;SDS011;684;48.342;10.096;2022-07-10T06:48:32;27.87;;;4.03;;
1380;SDS011;684;48.342;10.096;2022-07-10T06:50:58;26.97;;;4.00;;
1380;SDS011;684;48.342;10.096;2022-07-10T06:53:25;26.63;;;3.73;;
1380;SDS011;684;48.342;10.096;2022-07-10T06:55:52;28.50;;;4.10;;
1380;SDS011;684;48.342;10.096;2022-07-10T06:58:19;27.20;;;3.97;;
1380;SDS011;684;48.342;10.096;2022-07-10T07:00:47;26.90;;;3.50;;
1380;SDS011;684;48.342;10.096;2022-07-10T07:03:14;27.43;;;3.73;;
1380;SDS011;684;48.342;10.096;2022-07-10T07:05:41;26.20;;;3.17;;
1380;SDS011;684;48.342;10.096;2022-07-10T07:08:08;27.00;;;3.17;;
1380;SDS011;684;48.342;10.096;2022-07-10T07:10:35;26.60;;;3.50;;
1380;SDS011;684;48.342;10.096;2022-07-10T07:13:01;29.67;;;4.73;;
1380;SDS011;684;48.342;10.096;2022-07-10T07:15:28;28.90;;;3.70;;
1380;SDS011;684;48.342;10.096;2022-07-10T07:17:57;28.47;;;3.83;;
1380;SDS011;684;48.342;10.096;2022-07-10T07:20:33;26.97;;;4.00;;
1380;SDS011;684;48.342;10.096;2022-07-10T07:23:17;27.40;;;4.03;;
1380;SDS011;684;48.342;10.096;2022-07-10T07:25:44;26.90;;;3.73;;
1380;SDS011;684;48.342;10.096;2022-07-10T07:28:12;26.83;;;3.60;;
1380;SDS011;684;48.342;10.096;2022-07-10T07:30:41;25.67;;;3.50;;
1380;SDS011;684;48.342;10.096;2022-07-10T07:33:10;24.70;;;2.77;;
1380;SDS011;684;48.342;10.096;2022-07-10T07:35:36;24.30;;;3.03;;
1380;SDS011;684;48.342;10.096;2022-07-10T07:38:03;25.97;;;3.00;;
1380;SDS011;684;48.342;10.096;2022-07-10T07:40:32;24.33;;;2.70;;
1380;SDS011;684;48.342;10.096;2022-07-10T07:42:59;23.73;;;2.70;;
1380;SDS011;684;48.342;10.096;2022-07-10T07:45:26;24.63;;;3.00;;
1380;SDS011;684;48.342;10.096;2022-07-10T07:47:53;25.40;;;3.13;;
1380;SDS011;684;48.342;10.096;2022-07-10T07:50:23;26.03;;;2.73;;
1380;SDS011;684;48.342;10.096;2022-07-10T07:52:52;24.73;;;2.90;;
1380;SDS011;684;48.342;10.096;2022-07-10T07:55:19;28.20;;;3.40;;
1380;SDS011;684;48.342;10.096;2022-07-10T07:57:47;25.93;;;3.13;;
1380;SDS011;684;48.342;10.096;2022-07-10T08:00:17;26.33;;;3.00;;
1380;SDS011;684;48.342;10.096;2022-07-10T08:02:44;26.67;;;2.90;;
1380;SDS011;684;48.342;10.096;2022-07-10T08:05:17;28.10;;;5.30;;
1380;SDS011;684;48.342;10.096;2022-07-10T08:07:47;27.50;;;3.63;;
1380;SDS011;684;48.342;10.096;2022-07-10T08:10:16;27.07;;;3.27;;
1380;SDS011;684;48.342;10.096;2022-07-10T08:12:43;27.57;;;3.87;;
1380;SDS011;684;48.342;10.096;2022-07-10T08:15:12;25.13;;;2.83;;
1380;SDS011;684;48.342;10.096;2022-07-10T08:17:40;25.20;;;2.50;;
1380;SDS011;684;48.342;10.096;2022-07-10T08:20:07;25.13;;;2.63;;
1380;SDS011;684;48.342;10.096;2022-07-10T08:22:38;24.03;;;2.13;;
1380;SDS011;684;48.342;10.096;2022-07-10T08:25:07;25.53;;;2.87;;
1380;SDS011;684;48.342;10.096;2022-07-10T08:27:34;26.40;;;2.50;;
1380;SDS011;684;48.342;10.096;2022-07-10T08:30:02;26.20;;;2.40;;
1380;SDS011;684;48.342;10.096;2022-07-10T08:32:29;26.33;;;2.37;;
1380;SDS011;684;48.342;10.096;2022-07-10T08:34:56;26.37;;;3.00;;
1380;SDS011;684;48.342;10.096;2022-07-10T08:37:24;25.67;;;2.40;;
1380;SDS011;684;48.342;10.096;2022-07-10T08:39:50;26.80;;;2.70;;
1380;SDS011;684;48.342;10.096;2022-07-10T08:42:19;24.83;;;2.23;;
1380;SDS011;684;48.342;10.096;2022-07-10T08:44:47;26.83;;;2.87;;
1380;SDS011;684;48.342;10.096;2022-07-10T08:47:14;24.67;;;2.40;;
1380;SDS011;684;48.342;10.096;2022-07-10T08:49:45;23.50;;;1.83;;
1380;SDS011;684;48.342;10.096;2022-07-10T08:52:17;23.73;;;2.07;;
1380;SDS011;684;48.342;10.096;2022-07-10T08:54:52;22.80;;;2.50;;
1380;SDS011;684;48.342;10.096;2022-07-10T08:57:21;23.30;;;2.60;;
1380;SDS011;684;48.342;10.096;2022-07-10T08:59:49;22.03;;;1.90;;
1380;SDS011;684;48.342;10.096;2022-07-10T09:02:16;22.37;;;1.90;;
1380;SDS011;684;48.342;10.096;2022-07-10T09:04:43;25.03;;;2.10;;
1380;SDS011;684;48.342;10.096;2022-07-10T09:07:10;26.00;;;2.50;;
1380;SDS011;684;48.342;10.096;2022-07-10T09:09:50;24.67;;;2.30;;
1380;SDS011;684;48.342;10.096;2022-07-10T09:12:19;25.70;;;2.30;;
1380;SDS011;684;48.342;10.096;2022-07-10T09:14:47;24.80;;;2.40;;
1380;SDS011;684;48.342;10.096;2022-07-10T09:17:14;23.87;;;2.20;;
1380;SDS011;684;48.342;10.096;2022-07-10T09:19:41;24.87;;;2.53;;
1380;SDS011;684;48.342;10.096;2022-07-10T09:22:09;25.80;;;3.00;;
1380;SDS011;684;48.342;10.096;2022-07-10T09:24:38;25.30;;;2.60;;
1380;SDS011;684;48.342;10.096;2022-07-10T09:27:06;24.23;;;2.20;;
1380;SDS011;684;48.342;10.096;2022-07-10T09:29:44;24.40;;;2.50;;
1380;SDS011;684;48.342;10.096;2022-07-10T09:32:13;25.17;;;2.63;;
1380;SDS011;684;48.342;10.096;2022-07-10T09:38:02;24.57;;;2.60;;
1380;SDS011;684;48.342;10.096;2022-07-10T09:40:29;24.50;;;2.70;;
1380;SDS011;684;48.342;10.096;2022-07-10T09:42:56;25.57;;;2.57;;
1380;SDS011;684;48.342;10.096;2022-07-10T09:45:25;26.47;;;2.77;;
1380;SDS011;684;48.342;10.096;2022-07-10T09:47:57;26.17;;;2.67;;
1380;SDS011;684;48.342;10.096;2022-07-10T09:50:29;27.17;;;4.00;;
1380;SDS011;684;48.342;10.096;2022-07-10T09:52:58;28.00;;;3.07;;
1380;SDS011;684;48.342;10.096;2022-07-10T09:55:26;26.30;;;3.20;;
1380;SDS011;684;48.342;10.096;2022-07-10T09:57:55;26.90;;;3.80;;
1380;SDS011;684;48.342;10.096;2022-07-10T10:00:25;29.87;;;3.33;;
1380;SDS011;684;48.342;10.096;2022-07-10T10:02:54;29.63;;;3.40;;
1380;SDS011;684;48.342;10.096;2022-07-10T10:05:25;27.60;;;3.40;;
1380;SDS011;684;48.342;10.096;2022-07-10T10:08:02;27.87;;;3.50;;
1380;SDS011;684;48.342;10.096;2022-07-10T10:10:35;26.50;;;2.87;;
1380;SDS011;684;48.342;10.096;2022-07-10T10:13:03;27.57;;;3.37;;
1380;SDS011;684;48.342;10.096;2022-07-10T10:15:34;27.20;;;2.93;;
1380;SDS011;684;48.342;10.096;2022-07-10T10:18:01;27.10;;;3.20;;
1380;SDS011;684;48.342;10.096;2022-07-10T10:20:31;27.27;;;3.20;;
1380;SDS011;684;48.342;10.096;2022-07-10T10:23:07;29.07;;;3.17;;
1380;SDS011;684;48.342;10.096;2022-07-10T10:25:35;27.00;;;3.57;;
1380;SDS011;684;48.342;10.096;2022-07-10T10:28:04;27.90;;;3.07;;
1380;SDS011;684;48.342;10.096;2022-07-10T10:30:35;27.50;;;3.17;;
1380;SDS011;684;48.342;10.096;2022-07-10T10:33:04;26.77;;;3.00;;
1380;SDS011;684;48.342;10.096;2022-07-10T10:36:12;27.20;;;3.10;;
1380;SDS011;684;48.342;10.096;2022-07-10T10:41:38;27.70;;;3.90;;
1380;SDS011;684;48.342;10.096;2022-07-10T10:44:18;27.63;;;2.77;;
1380;SDS011;684;48.342;10.096;2022-07-10T10:46:53;28.93;;;2.50;;
1380;SDS011;684;48.342;10.096;2022-07-10T10:49:26;28.10;;;3.53;;
1380;SDS011;684;48.342;10.096;2022-07-10T10:52:14;28.20;;;3.53;;
1380;SDS011;684;48.342;10.096;2022-07-10T10:57:40;27.43;;;2.70;;
1380;SDS011;684;48.342;10.096;2022-07-10T11:00:30;27.83;;;2.70;;
1380;SDS011;684;48.342;10.096;2022-07-10T11:03:15;28.47;;;3.10;;
1380;SDS011;684;48.342;10.096;2022-07-10T11:05:47;27.63;;;3.20;;
1380;SDS011;684;48.342;10.096;2022-07-10T11:14:07;26.90;;;3.10;;
1380;SDS011;684;48.342;10.096;2022-07-10T11:16:35;29.33;;;3.10;;
1380;SDS011;684;48.342;10.096;2022-07-10T11:19:11;27.60;;;3.10;;
1380;SDS011;684;48.342;10.096;2022-07-10T11:21:43;28.20;;;3.50;;
1380;SDS011;684;48.342;10.096;2022-07-10T11:24:18;26.93;;;3.30;;
1380;SDS011;684;48.342;10.096;2022-07-10T11:27:06;28.00;;;3.50;;
1380;SDS011;684;48.342;10.096;2022-07-10T11:29:42;27.40;;;3.13;;
1380;SDS011;684;48.342;10.096;2022-07-10T11:32:14;28.27;;;3.77;;
1380;SDS011;684;48.342;10.096;2022-07-10T11:34:42;28.20;;;3.00;;
1380;SDS011;684;48.342;10.096;2022-07-10T11:37:13;27.67;;;3.27;;
1380;SDS011;684;48.342;10.096;2022-07-10T11:39:42;27.57;;;3.00;;
1380;SDS011;684;48.342;10.096;2022-07-10T11:42:09;28.00;;;3.20;;
1380;SDS011;684;48.342;10.096;2022-07-10T11:44:36;27.30;;;3.10;;
1380;SDS011;684;48.342;10.096;2022-07-10T11:47:03;27.80;;;3.03;;
1380;SDS011;684;48.342;10.096;2022-07-10T11:49:32;28.07;;;3.30;;
1380;SDS011;684;48.342;10.096;2022-07-10T11:52:00;29.00;;;3.60;;
1380;SDS011;684;48.342;10.096;2022-07-10T11:54:28;27.20;;;3.50;;
1380;SDS011;684;48.342;10.096;2022-07-10T11:57:03;27.37;;;2.90;;
1380;SDS011;684;48.342;10.096;2022-07-10T11:59:33;28.23;;;2.80;;
1380;SDS011;684;48.342;10.096;2022-07-10T12:02:00;28.20;;;3.00;;
1380;SDS011;684;48.342;10.096;2022-07-10T12:04:28;27.80;;;3.17;;
1380;SDS011;684;48.342;10.096;2022-07-10T12:06:57;28.93;;;3.97;;
1380;SDS011;684;48.342;10.096;2022-07-10T12:09:24;27.47;;;3.17;;
1380;SDS011;684;48.342;10.096;2022-07-10T12:11:59;27.67;;;3.40;;
1380;SDS011;684;48.342;10.096;2022-07-10T12:14:27;29.10;;;4.13;;
1380;SDS011;684;48.342;10.096;2022-07-10T12:16:54;30.13;;;3.50;;
1380;SDS011;684;48.342;10.096;2022-07-10T12:19:22;30.07;;;3.20;;
1380;SDS011;684;48.342;10.096;2022-07-10T12:21:53;27.17;;;3.00;;
1380;SDS011;684;48.342;10.096;2022-07-10T12:24:20;29.17;;;2.97;;
1380;SDS011;684;48.342;10.096;2022-07-10T12:26:48;26.97;;;2.70;;
1380;SDS011;684;48.342;10.096;2022-07-10T12:29:22;28.20;;;3.10;;
1380;SDS011;684;48.342;10.096;2022-07-10T12:31:50;29.17;;;2.83;;
1380;SDS011;684;48.342;10.096;2022-07-10T12:34:20;29.87;;;3.13;;
1380;SDS011;684;48.342;10.096;2022-07-10T12:36:58;27.20;;;2.97;;
1380;SDS011;684;48.342;10.096;2022-07-10T12:39:32;29.90;;;3.17;;
1380;SDS011;684;48.342;10.096;2022-07-10T12:42:03;27.33;;;2.80;;
1380;SDS011;684;48.342;10.096;2022-07-10T12:44:37;27.43;;;2.60;;
1380;SDS011;684;48.342;10.096;2022-07-10T12:47:05;27.23;;;3.00;;
1380;SDS011;684;48.342;10.096;2022-07-10T12:49:53;29.53;;;3.37;;
1380;SDS011;684;48.342;10.096;2022-07-10T12:52:21;27.43;;;3.10;;
1380;SDS011;684;48.342;10.096;2022-07-10T12:54:48;28.00;;;2.90;;
1380;SDS011;684;48.342;10.096;2022-07-10T12:57:31;27.90;;;3.23;;
1380;SDS011;684;48.342;10.096;2022-07-10T13:00:03;27.80;;;2.60;;
1380;SDS011;684;48.342;10.096;2022-07-10T13:02:32;28.47;;;3.17;;
1380;SDS011;684;48.342;10.096;2022-07-10T13:04:58;29.00;;;4.10;;
1380;SDS011;684;48.342;10.096;2022-07-10T13:07:29;27.57;;;3.27;;
1380;SDS011;684;48.342;10.096;2022-07-10T13:09:58;29.03;;;3.00;;
1380;SDS011;684;48.342;10.096;2022-07-10T13:12:25;28.20;;;2.80;;
1380;SDS011;684;48.342;10.096;2022-07-10T13:14:52;28.27;;;3.07;;
1380;SDS011;684;48.342;10.096;2022-07-10T13:17:20;28.10;;;2.90;;
1380;SDS011;684;48.342;10.096;2022-07-10T13:19:48;28.10;;;4.40;;
1380;SDS011;684;48.342;10.096;2022-07-10T13:22:15;27.30;;;3.10;;
1380;SDS011;684;48.342;10.096;2022-07-10T13:24:42;27.37;;;2.60;;
1380;SDS011;684;48.342;10.096;2022-07-10T13:27:09;28.20;;;2.90;;
1380;SDS011;684;48.342;10.096;2022-07-10T13:29:36;30.00;;;2.57;;
1380;SDS011;684;48.342;10.096;2022-07-10T13:32:03;29.57;;;3.17;;
1380;SDS011;684;48.342;10.096;2022-07-10T13:34:32;30.10;;;3.43;;
1380;SDS011;684;48.342;10.096;2022-07-10T13:37:00;28.57;;;2.90;;
1380;SDS011;684;48.342;10.096;2022-07-10T13:39:27;29.50;;;2.80;;
1380;SDS011;684;48.342;10.096;2022-07-10T13:41:53;27.67;;;2.83;;
1380;SDS011;684;48.342;10.096;2022-07-10T13:44:20;30.00;;;3.03;;
1380;SDS011;684;48.342;10.096;2022-07-10T13:46:47;30.37;;;2.93;;
1380;SDS011;684;48.342;10.096;2022-07-10T13:49:14;29.57;;;2.80;;
1380;SDS011;684;48.342;10.096;2022-07-10T13:51:42;29.20;;;2.60;;
1380;SDS011;684;48.342;10.096;2022-07-10T13:54:09;27.97;;;2.60;;
1380;SDS011;684;48.342;10.096;2022-07-10T13:56:36;27.50;;;2.80;;
1380;SDS011;684;48.342;10.096;2022-07-10T13:59:02;27.33;;;2.60;;
1380;SDS011;684;48.342;10.096;2022-07-10T14:01:29;28.67;;;2.70;;
1380;SDS011;684;48.342;10.096;2022-07-10T14:03:56;27.83;;;2.87;;
1380;SDS011;684;48.342;10.096;2022-07-10T14:06:23;27.97;;;3.27;;
1380;SDS011;684;48.342;10.096;2022-07-10T14:08:51;27.43;;;3.00;;
1380;SDS011;684;48.342;10.096;2022-07-10T14:11:18;28.50;;;2.67;;
1380;SDS011;684;48.342;10.096;2022-07-10T14:13:45;28.73;;;2.70;;
1380;SDS011;684;48.342;10.096;2022-07-10T14:16:12;27.80;;;3.10;;
1380;SDS011;684;48.342;10.096;2022-07-10T14:18:39;27.60;;;2.20;;
1380;SDS011;684;48.342;10.096;2022-07-10T14:21:06;28.10;;;2.23;;
1380;SDS011;684;48.342;10.096;2022-07-10T14:23:35;28.70;;;2.90;;
1380;SDS011;684;48.342;10.096;2022-07-10T14:26:05;27.87;;;2.60;;
1380;SDS011;684;48.342;10.096;2022-07-10T14:28:32;29.23;;;3.40;;
1380;SDS011;684;48.342;10.096;2022-07-10T14:31:00;27.90;;;2.47;;
1380;SDS011;684;48.342;10.096;2022-07-10T14:33:28;27.67;;;2.40;;
1380;SDS011;684;48.342;10.096;2022-07-10T14:35:56;28.40;;;2.80;;
1380;SDS011;684;48.342;10.096;2022-07-10T14:38:23;28.20;;;2.87;;
1380;SDS011;684;48.342;10.096;2022-07-10T14:40:50;28.20;;;2.27;;
1380;SDS011;684;48.342;10.096;2022-07-10T14:43:19;28.07;;;2.73;;
1380;SDS011;684;48.342;10.096;2022-07-10T14:45:46;28.57;;;2.87;;
1380;SDS011;684;48.342;10.096;2022-07-10T14:48:13;28.07;;;2.60;;
1380;SDS011;684;48.342;10.096;2022-07-10T14:50:40;29.50;;;3.00;;
1380;SDS011;684;48.342;10.096;2022-07-10T14:53:07;28.20;;;3.10;;
1380;SDS011;684;48.342;10.096;2022-07-10T14:55:36;28.83;;;2.90;;
1380;SDS011;684;48.342;10.096;2022-07-10T14:58:03;27.70;;;3.00;;
1380;SDS011;684;48.342;10.096;2022-07-10T15:00:31;29.40;;;2.50;;
1380;SDS011;684;48.342;10.096;2022-07-10T15:02:58;27.57;;;2.70;;
1380;SDS011;684;48.342;10.096;2022-07-10T15:05:26;28.20;;;2.73;;
1380;SDS011;684;48.342;10.096;2022-07-10T15:07:53;27.83;;;2.83;;
1380;SDS011;684;48.342;10.096;2022-07-10T15:10:20;27.57;;;2.57;;
1380;SDS011;684;48.342;10.096;2022-07-10T15:12:47;28.33;;;2.40;;
1380;SDS011;684;48.342;10.096;2022-07-10T15:15:13;28.20;;;2.30;;
1380;SDS011;684;48.342;10.096;2022-07-10T15:17:42;30.07;;;2.90;;
1380;SDS011;684;48.342;10.096;2022-07-10T15:20:09;28.50;;;2.77;;
1380;SDS011;684;48.342;10.096;2022-07-10T15:22:37;31.10;;;3.23;;